Time;durP1;ratioP1;P1;durP2;ratioP2;P2;SDS_P1;SDS_P2;PMS_P1;PMS_P2;Temp;Humidity;BMP_temperature;BMP_pressure;BME280_temperature;BME280_humidity;BME280_pressure;Samples;Min_cycle;Max_cycle;Signal;HPM_P1;HPM_P2
2024/02/10 09:27:48;;;;;;;1.20;0.70;;;13.70;99.90;;;;;;4892630;23;20232;-77
2024/02/10 09:30:15;;;;;;;1.57;1.13;;;13.80;99.90;;;;;;4937548;29;20240;-80
2024/02/10 09:32:45;;;;;;;2.30;0.83;;;13.90;99.90;;;;;;4937295;29;20232;-77
2024/02/10 09:35:12;;;;;;;3.00;0.97;;;13.80;99.90;;;;;;4923049;29;20337;-80
2024/02/10 09:37:39;;;;;;;1.53;1.03;;;13.80;99.90;;;;;;4918331;29;20212;-81
2024/02/10 09:40:09;;;;;;;2.57;0.93;;;13.80;99.90;;;;;;4918474;29;20209;-82
2024/02/10 09:42:39;;;;;;;1.40;0.90;;;13.80;99.90;;;;;;4918023;29;20661;-79
2024/02/10 09:45:13;;;;;;;2.57;0.80;;;13.80;99.90;;;;;;4917733;29;20776;-84
2024/02/10 09:47:41;;;;;;;5.03;1.20;;;14.00;99.90;;;;;;4918128;29;20217;-79
2024/02/10 09:50:13;;;;;;;1.43;0.80;;;13.90;99.90;;;;;;4918442;29;20240;-78
2024/02/10 09:52:47;;;;;;;2.60;0.80;;;13.90;99.90;;;;;;4918137;29;20288;-77
2024/02/10 09:55:15;;;;;;;1.30;0.77;;;13.90;99.90;;;;;;4918088;29;20284;-77
2024/02/10 09:57:46;;;;;;;1.20;0.73;;;13.90;99.90;;;;;;4918097;29;20534;-82
2024/02/10 10:00:17;;;;;;;1.07;0.73;;;14.10;99.90;;;;;;4918325;29;20218;-81
2024/02/10 10:02:49;;;;;;;4.83;0.90;;;14.00;99.90;;;;;;4918075;29;20290;-79
2024/02/10 10:05:19;;;;;;;2.93;1.00;;;13.90;99.90;;;;;;4915730;29;20731;-81
2024/02/10 10:07:47;;;;;;;1.37;0.77;;;14.10;99.90;;;;;;4915921;29;20198;-84
2024/02/10 10:10:14;;;;;;;2.73;0.87;;;14.10;99.90;;;;;;4916488;29;20241;-80
2024/02/10 10:12:41;;;;;;;1.73;0.80;;;14.10;99.90;;;;;;4915870;29;20226;-82
2024/02/10 10:15:08;;;;;;;1.30;0.80;;;14.20;99.90;;;;;;4916227;29;20629;-81
2024/02/10 10:17:37;;;;;;;1.13;0.77;;;14.30;99.90;;;;;;4916422;29;20244;-82
2024/02/10 10:20:05;;;;;;;2.30;1.10;;;14.10;99.90;;;;;;4915806;29;20755;-80
2024/02/10 10:22:34;;;;;;;3.47;1.00;;;14.30;99.90;;;;;;4915477;29;20308;-83
2024/02/10 10:25:02;;;;;;;2.50;0.80;;;14.60;99.90;;;;;;4916157;29;20244;-81
2024/02/10 10:27:29;;;;;;;1.30;0.90;;;14.60;99.90;;;;;;4915756;29;20592;-80
2024/02/10 10:29:56;;;;;;;1.60;1.00;;;14.70;99.90;;;;;;4916078;29;20229;-79
2024/02/10 10:32:27;;;;;;;1.47;0.80;;;14.60;99.90;;;;;;4916382;29;20218;-80
2024/02/10 10:34:56;;;;;;;2.30;0.80;;;14.70;99.90;;;;;;4902152;29;20233;-84
2024/02/10 10:37:24;;;;;;;0.97;0.63;;;15.00;99.90;;;;;;4915142;29;20217;-82
2024/02/10 10:39:52;;;;;;;1.53;0.67;;;15.00;99.90;;;;;;4897103;29;20577;-78
2024/02/10 10:42:21;;;;;;;1.33;0.70;;;15.00;99.90;;;;;;4896496;29;20210;-77
2024/02/10 10:44:50;;;;;;;1.37;0.60;;;14.80;99.90;;;;;;4914823;29;20337;-79
2024/02/10 10:47:22;;;;;;;1.00;0.67;;;14.40;99.90;;;;;;4915409;29;20258;-81
2024/02/10 10:49:51;;;;;;;1.63;0.70;;;14.50;99.90;;;;;;4916918;29;20312;-81
2024/02/10 10:52:20;;;;;;;3.43;0.70;;;14.60;99.90;;;;;;4916625;29;20205;-81
2024/02/10 10:54:49;;;;;;;1.37;0.70;;;14.60;99.90;;;;;;4917114;29;20225;-82
2024/02/10 10:57:20;;;;;;;2.00;0.70;;;14.80;99.90;;;;;;4917365;29;20236;-85
2024/02/10 10:59:53;;;;;;;1.33;0.70;;;15.00;99.90;;;;;;4916881;29;20692;-83
2024/02/10 11:02:21;;;;;;;1.63;0.57;;;15.00;99.90;;;;;;4916777;29;20209;-80
2024/02/10 11:04:49;;;;;;;0.80;0.47;;;14.80;99.90;;;;;;4916461;29;20245;-80
2024/02/10 11:07:17;;;;;;;1.85;0.60;;;14.90;99.90;;;;;;4916952;29;20223;-79
2024/02/10 11:09:48;;;;;;;1.70;0.70;;;15.10;99.90;;;;;;4916284;29;20216;-80
2024/02/10 11:12:16;;;;;;;2.17;0.67;;;15.20;99.90;;;;;;4917085;29;20626;-81
2024/02/10 11:14:52;;;;;;;1.35;0.63;;;15.20;99.90;;;;;;4916130;29;20226;-80
2024/02/10 11:17:20;;;;;;;4.10;0.60;;;15.10;99.90;;;;;;4917078;29;20211;-79
2024/02/10 11:19:59;;;;;;;3.53;0.80;;;15.20;99.90;;;;;;4916494;29;20210;-80
2024/02/10 11:22:30;;;;;;;2.63;0.60;;;14.90;99.90;;;;;;4916740;29;20217;-79
2024/02/10 11:25:01;;;;;;;1.10;0.70;;;14.80;99.90;;;;;;4916403;29;20233;-81
2024/02/10 11:27:30;;;;;;;1.33;0.67;;;14.60;99.90;;;;;;4916528;29;20212;-79
2024/02/10 11:29:58;;;;;;;2.53;0.63;;;14.90;99.90;;;;;;4916076;29;20260;-80
2024/02/10 11:32:26;;;;;;;1.47;0.60;;;15.00;99.90;;;;;;4916221;29;20277;-77
2024/02/10 11:34:53;;;;;;;1.03;0.60;;;14.80;99.90;;;;;;4915529;29;20233;-80
2024/02/10 11:37:21;;;;;;;2.30;0.63;;;14.70;99.90;;;;;;4916368;29;20210;-79
2024/02/10 11:39:48;;;;;;;0.93;0.67;;;14.40;99.90;;;;;;4916162;29;20218;-82
2024/02/10 11:42:16;;;;;;;1.20;0.67;;;14.50;99.90;;;;;;4916096;29;20667;-79
2024/02/10 11:44:43;;;;;;;0.90;0.53;;;14.50;99.90;;;;;;4915539;29;20325;-80
2024/02/10 11:47:10;;;;;;;0.90;0.60;;;14.40;99.90;;;;;;4916374;29;20240;-80
2024/02/10 11:49:38;;;;;;;0.90;0.70;;;14.50;99.90;;;;;;4915940;29;20211;-79
2024/02/10 11:52:07;;;;;;;1.33;0.50;;;14.70;99.90;;;;;;4916093;29;20313;-79
2024/02/10 11:54:36;;;;;;;2.47;0.40;;;14.50;99.90;;;;;;4915941;29;20332;-80
2024/02/10 11:57:04;;;;;;;2.30;0.70;;;14.60;99.90;;;;;;4916104;29;20600;-80
2024/02/10 11:59:34;;;;;;;1.27;0.57;;;14.50;99.90;;;;;;4915751;29;20748;-79
2024/02/10 12:02:02;;;;;;;1.00;0.50;;;14.50;99.90;;;;;;4916445;29;20549;-81
2024/02/10 12:04:32;;;;;;;2.60;0.83;;;14.50;99.90;;;;;;4916351;29;20711;-80
2024/02/10 12:06:59;;;;;;;1.43;0.90;;;14.30;99.90;;;;;;4916384;29;20213;-80
2024/02/10 12:09:27;;;;;;;1.40;0.70;;;14.30;99.90;;;;;;4916205;29;20668;-79
2024/02/10 12:11:59;;;;;;;1.10;0.80;;;14.30;99.90;;;;;;4916366;29;20237;-80
2024/02/10 12:14:27;;;;;;;1.40;0.70;;;14.40;99.90;;;;;;4912696;29;20257;-81
